createdAt,value
2022-10-17T00:14:05.333Z,16.3
2022-10-17T00:24:05.295Z,16.3
2022-10-17T00:34:05.352Z,16.3
2022-10-17T00:44:05.328Z,16.4
2022-10-17T01:04:05.408Z,16
2022-10-17T01:24:05.435Z,16.2
2022-10-17T01:34:05.426Z,16.2
2022-10-17T01:44:05.470Z,16.2
2022-10-17T01:54:05.470Z,16.3
2022-10-17T02:04:05.485Z,16.4
2022-10-17T02:14:05.572Z,16.3
2022-10-17T02:24:05.529Z,16.4
2022-10-17T02:34:05.549Z,16.4
2022-10-17T02:44:05.577Z,16.4
2022-10-17T03:04:05.623Z,16.4
2022-10-17T03:24:05.642Z,16.4
2022-10-17T03:34:05.638Z,16.5
2022-10-17T03:44:05.665Z,16.4
2022-10-17T03:54:05.671Z,16.3
2022-10-17T04:04:05.665Z,16.4
2022-10-17T04:14:05.709Z,16.3
2022-10-17T04:24:05.750Z,16.3
2022-10-17T04:34:05.725Z,16.3
2022-10-17T05:04:05.793Z,16.2
2022-10-17T05:14:05.810Z,16.3
2022-10-17T05:34:08.007Z,16.4
2022-10-17T05:44:05.977Z,16.5
2022-10-17T05:54:05.896Z,16.3
2022-10-17T06:04:05.882Z,16.3
2022-10-17T06:14:05.978Z,16.2
2022-10-17T06:24:05.925Z,16.5
2022-10-17T06:34:05.954Z,16.5
2022-10-17T06:44:05.954Z,17.1
2022-10-17T06:54:05.990Z,17.1
2022-10-17T07:04:05.980Z,17.4
2022-10-17T07:14:06.031Z,17.9
2022-10-17T07:44:06.093Z,18.2
2022-10-17T07:54:06.052Z,17.7
2022-10-17T08:04:06.176Z,18.1
2022-10-17T08:14:06.108Z,18.5
2022-10-17T08:34:06.162Z,19.2
2022-10-17T08:44:06.153Z,18.7
2022-10-17T08:54:06.178Z,18.7
2022-10-17T09:04:06.165Z,18.7
2022-10-17T09:14:06.204Z,18.5
2022-10-17T09:34:06.232Z,20.5
2022-10-17T09:44:06.228Z,21.2
2022-10-17T10:04:06.341Z,20.9
2022-10-17T10:14:06.300Z,20.7
2022-10-17T10:24:06.316Z,20.9
2022-10-17T10:44:06.376Z,20.6
2022-10-17T10:54:06.335Z,21
2022-10-17T11:04:06.372Z,20.7
2022-10-17T11:14:07.440Z,20.8
2022-10-17T11:24:06.962Z,20.8
2022-10-17T11:34:06.392Z,20.8
2022-10-17T11:44:06.447Z,20.7
2022-10-17T11:54:06.443Z,20.7
2022-10-17T12:04:06.540Z,20.8
2022-10-17T12:14:06.469Z,21
2022-10-17T12:24:06.533Z,21.1
2022-10-17T12:34:06.509Z,21
2022-10-17T12:44:06.548Z,21.2
2022-10-17T12:54:06.503Z,21.6
2022-10-17T13:04:06.556Z,21.6
2022-10-17T13:14:06.573Z,21.6
2022-10-17T13:24:06.595Z,21.5
2022-10-17T13:34:06.589Z,21.1
2022-10-17T13:44:06.686Z,21
2022-10-17T13:54:06.625Z,20.8
2022-10-17T14:04:10.269Z,20.6
2022-10-17T14:14:06.673Z,20.6
2022-10-17T14:24:06.703Z,20.7
2022-10-17T14:34:06.672Z,20.6
2022-10-17T14:44:06.728Z,20.5
2022-10-17T14:54:06.709Z,20.4
2022-10-17T15:04:06.767Z,20.1
2022-10-17T15:14:06.766Z,20.1
2022-10-17T15:24:06.802Z,19.9
2022-10-17T15:34:06.765Z,19.9
2022-10-17T15:44:06.810Z,19.8
2022-10-17T15:54:06.909Z,19.7
2022-10-17T16:04:06.870Z,19.5
2022-10-17T16:14:06.829Z,19.4
2022-10-17T16:24:06.901Z,19.3
2022-10-17T16:34:06.887Z,19.2
2022-10-17T16:44:06.900Z,19.1
2022-10-17T16:54:06.888Z,19
2022-10-17T17:04:06.922Z,18.9
2022-10-17T17:14:06.942Z,18.7
2022-10-17T17:24:06.972Z,18.7
2022-10-17T17:34:06.959Z,18.7
2022-10-17T17:44:07.856Z,18.5
2022-10-17T17:54:06.981Z,18.5
2022-10-17T18:04:07.043Z,18.2
2022-10-17T18:14:07.019Z,17.9
2022-10-17T18:24:07.079Z,17.8
2022-10-17T18:34:07.065Z,17.5
2022-10-17T18:44:07.099Z,17.3
2022-10-17T18:54:07.093Z,17.1
2022-10-17T19:04:07.132Z,16.9
2022-10-17T19:14:07.126Z,16.8
2022-10-17T19:34:07.197Z,16.5
2022-10-17T22:04:07.435Z,15.1
2022-10-17T22:14:07.433Z,15.1
2022-10-17T22:44:07.526Z,15
2022-10-17T22:54:07.504Z,14.9
2022-10-17T23:04:07.564Z,14.8
2022-10-17T23:14:07.537Z,14.8
2022-10-17T23:24:07.573Z,14.8
2022-10-17T23:34:07.567Z,14.8
2022-10-17T23:44:07.618Z,14.7
2022-10-17T23:54:07.615Z,14.7
